createdAt,value
2023-03-18T00:00:16.776Z,98024.28
2023-03-18T00:02:43.953Z,98025.50
2023-03-18T00:05:12.728Z,98020.25
2023-03-18T00:07:40.272Z,98019.25
2023-03-18T00:10:10.089Z,98025.28
2023-03-18T00:12:38.931Z,98026.69
2023-03-18T00:15:08.157Z,98045.84
2023-03-18T00:17:35.627Z,98049.69
2023-03-18T00:20:06.001Z,98046.25
2023-03-18T00:22:34.088Z,98049.88
2023-03-18T00:25:01.006Z,98056.94
2023-03-18T00:27:28.579Z,98060.56
2023-03-18T00:29:56.069Z,98059.13
2023-03-18T00:32:23.170Z,98057.09
2023-03-18T00:34:50.699Z,98062.31
2023-03-18T00:37:30.139Z,98060.44
2023-03-18T00:40:04.769Z,98068.84
2023-03-18T00:42:38.917Z,98082.72
2023-03-18T00:45:08.759Z,98083.28
2023-03-18T00:47:38.664Z,98098.38
2023-03-18T00:50:08.469Z,98100.56
2023-03-18T00:52:36.039Z,98100.66
2023-03-18T00:55:02.780Z,98100.81
2023-03-18T00:57:30.128Z,98107.25
2023-03-18T00:59:59.313Z,98119.88
2023-03-18T01:02:27.569Z,98122.19
2023-03-18T01:04:54.304Z,98119.38
2023-03-18T01:07:20.922Z,98122.72
2023-03-18T01:09:48.173Z,98131.38
2023-03-18T01:12:15.207Z,98136.34
2023-03-18T01:14:43.148Z,98145.59
2023-03-18T01:17:10.764Z,98137.28
2023-03-18T01:19:37.952Z,98133.22
2023-03-18T01:22:04.855Z,98145.34
2023-03-18T01:24:31.517Z,98147.34
2023-03-18T01:26:58.357Z,98146.91
2023-03-18T01:29:25.294Z,98142.03
2023-03-18T01:31:52.194Z,98144.34
2023-03-18T01:34:19.275Z,98139.28
2023-03-18T01:36:46.487Z,98133.19
2023-03-18T01:39:13.248Z,98129.13
2023-03-18T01:41:40.313Z,98135.34
2023-03-18T01:44:15.301Z,98127.88
2023-03-18T01:46:45.027Z,98133.38
2023-03-18T01:49:16.482Z,98120.84
2023-03-18T01:51:47.426Z,98116.41
2023-03-18T01:54:15.511Z,98115.50
2023-03-18T01:56:44.618Z,98109.56
2023-03-18T01:59:12.964Z,98124.88
2023-03-18T02:01:48.053Z,98138.59
2023-03-18T02:04:18.393Z,98147.91
2023-03-18T02:06:45.632Z,98152.03
2023-03-18T02:09:13.129Z,98150.34
2023-03-18T02:11:43.750Z,98155.56
2023-03-18T02:14:14.849Z,98152.03
2023-03-18T02:16:50.340Z,98160.81
2023-03-18T02:19:26.575Z,98155.75
2023-03-18T02:22:08.957Z,98148.44
2023-03-18T02:24:53.252Z,98152.25
2023-03-18T02:27:25.724Z,98161.72
2023-03-18T02:29:57.936Z,98175.81
2023-03-18T02:32:30.803Z,98173.09
2023-03-18T02:35:01.492Z,98175.97
2023-03-18T02:37:28.193Z,98181.66
2023-03-18T02:39:54.876Z,98176.84
2023-03-18T02:42:36.740Z,98172.63
2023-03-18T02:45:03.768Z,98173.81
2023-03-18T02:47:31.654Z,98173.81
2023-03-18T02:49:59.492Z,98174.97
2023-03-18T02:52:26.639Z,98171.53
2023-03-18T02:54:55.168Z,98164.22
2023-03-18T02:57:21.812Z,98181.31
2023-03-18T02:59:48.437Z,98180.06
2023-03-18T03:02:15.103Z,98181.31
2023-03-18T03:04:43.363Z,98181.97
2023-03-18T03:07:10.199Z,98185.13
2023-03-18T03:09:36.834Z,98188.25
2023-03-18T03:12:03.643Z,98189.06
2023-03-18T03:14:30.292Z,98193.56
2023-03-18T03:16:57.963Z,98194.34
2023-03-18T03:19:24.584Z,98202.56
2023-03-18T03:21:51.313Z,98205.53
2023-03-18T03:24:18.022Z,98196.00
2023-03-18T03:26:44.728Z,98194.53
2023-03-18T03:29:12.933Z,98194.91
2023-03-18T03:31:39.554Z,98208.94
2023-03-18T03:34:07.069Z,98213.69
2023-03-18T03:36:33.725Z,98215.22
2023-03-18T03:39:00.457Z,98226.03
2023-03-18T03:41:27.547Z,98223.75
2023-03-18T03:43:54.228Z,98223.91
2023-03-18T03:46:20.954Z,98228.47
2023-03-18T03:48:48.107Z,98225.25
2023-03-18T03:51:15.857Z,98232.75
2023-03-18T03:53:43.815Z,98238.19
2023-03-18T03:56:11.516Z,98236.88
2023-03-18T03:58:38.201Z,98244.34
2023-03-18T04:01:06.454Z,98252.59
2023-03-18T04:03:33.972Z,98250.28
2023-03-18T04:06:00.682Z,98247.31
2023-03-18T04:08:27.529Z,98256.91
2023-03-18T04:10:54.527Z,98251.31
2023-03-18T04:13:21.155Z,98250.81
2023-03-18T04:15:48.040Z,98252.09
2023-03-18T04:18:14.888Z,98252.91
2023-03-18T04:20:41.609Z,98253.38
2023-03-18T04:23:09.614Z,98257.91
2023-03-18T04:25:36.375Z,98260.78
2023-03-18T04:28:03.263Z,98260.16
2023-03-18T04:30:30.871Z,98259.06
2023-03-18T04:32:57.899Z,98268.06
2023-03-18T04:35:24.580Z,98275.66
2023-03-18T04:37:51.413Z,98284.25
2023-03-18T04:40:18.435Z,98277.50
2023-03-18T04:42:47.763Z,98279.31
2023-03-18T04:45:16.171Z,98276.06
2023-03-18T04:47:47.101Z,98287.66
2023-03-18T04:50:14.564Z,98281.50
2023-03-18T04:52:42.076Z,98277.75
2023-03-18T04:55:09.667Z,98280.41
2023-03-18T04:57:38.449Z,98276.56
2023-03-18T05:00:10.364Z,98287.13
2023-03-18T05:02:39.517Z,98282.41
2023-03-18T05:05:06.704Z,98282.88
2023-03-18T05:07:33.586Z,98292.34
2023-03-18T05:10:00.214Z,98298.56
2023-03-18T05:12:27.186Z,98296.78
2023-03-18T05:14:53.851Z,98293.16
2023-03-18T05:17:21.502Z,98291.09
2023-03-18T05:19:49.111Z,98298.44
2023-03-18T05:22:18.355Z,98290.94
2023-03-18T05:24:46.200Z,98296.97
2023-03-18T05:27:15.984Z,98297.13
2023-03-18T05:29:43.109Z,98302.53
2023-03-18T05:32:10.383Z,98297.63
2023-03-18T05:34:39.673Z,98297.47
2023-03-18T05:37:08.271Z,98301.25
2023-03-18T05:39:35.200Z,98293.91
2023-03-18T05:42:02.331Z,98306.94
2023-03-18T05:44:29.500Z,98313.81
2023-03-18T05:46:56.771Z,98307.28
2023-03-18T05:49:23.779Z,98310.38
2023-03-18T05:51:52.660Z,98313.13
2023-03-18T05:54:21.099Z,98316.75
2023-03-18T05:56:47.735Z,98311.22
2023-03-18T05:59:15.351Z,98315.63
2023-03-18T06:01:42.191Z,98318.03
2023-03-18T06:04:12.053Z,98317.66
2023-03-18T06:06:40.649Z,98311.13
2023-03-18T06:09:08.734Z,98313.28
2023-03-18T06:11:35.712Z,98319.63
2023-03-18T06:14:04.669Z,98318.13
2023-03-18T06:16:32.853Z,98326.25
2023-03-18T06:18:59.899Z,98328.56
2023-03-18T06:21:27.204Z,98325.63
2023-03-18T06:23:54.404Z,98327.72
2023-03-18T06:26:22.036Z,98325.41
2023-03-18T06:28:48.764Z,98329.28
2023-03-18T06:31:15.532Z,98328.47
2023-03-18T06:33:42.233Z,98330.91
2023-03-18T06:36:10.680Z,98339.41
2023-03-18T06:38:38.139Z,98335.91
2023-03-18T06:41:04.982Z,98329.03
2023-03-18T06:43:31.852Z,98335.00
2023-03-18T06:45:59.519Z,98329.75
2023-03-18T06:48:26.459Z,98343.94
2023-03-18T06:50:54.411Z,98337.19
2023-03-18T06:53:21.941Z,98341.38
2023-03-18T06:55:49.571Z,98339.72
2023-03-18T06:58:17.438Z,98340.28
2023-03-18T07:00:45.448Z,98338.06
2023-03-18T07:03:13.406Z,98334.25
2023-03-18T07:05:39.992Z,98340.31
2023-03-18T07:08:06.864Z,98337.78
2023-03-18T07:10:34.816Z,98338.53
2023-03-18T07:13:01.777Z,98333.03
2023-03-18T07:15:28.758Z,98335.50
2023-03-18T07:17:55.412Z,98341.81
2023-03-18T07:20:23.646Z,98347.97
2023-03-18T07:22:51.514Z,98339.81
2023-03-18T07:25:18.315Z,98349.00
2023-03-18T07:27:45.648Z,98348.47
2023-03-18T07:30:13.690Z,98349.34
2023-03-18T07:32:40.407Z,98351.19
2023-03-18T07:35:07.989Z,98353.22
2023-03-18T07:37:35.973Z,98357.03
2023-03-18T07:40:02.737Z,98358.59
2023-03-18T07:42:29.423Z,98351.50
2023-03-18T07:44:56.285Z,98348.25
2023-03-18T07:47:25.015Z,98348.16
2023-03-18T07:49:52.832Z,98353.16
2023-03-18T07:52:19.598Z,98352.53
2023-03-18T07:54:46.215Z,98348.59
2023-03-18T07:57:13.090Z,98352.06
2023-03-18T07:59:40.041Z,98349.47
2023-03-18T08:02:08.728Z,98349.53
2023-03-18T08:04:35.634Z,98342.13
2023-03-18T08:07:03.196Z,98345.41
2023-03-18T08:09:29.810Z,98345.63
2023-03-18T08:11:56.487Z,98350.31
2023-03-18T08:14:23.166Z,98351.78
2023-03-18T08:16:49.959Z,98348.16
2023-03-18T08:19:16.673Z,98357.91
2023-03-18T08:21:43.655Z,98350.03
2023-03-18T08:24:10.956Z,98352.91
2023-03-18T08:26:38.027Z,98354.72
2023-03-18T08:29:04.656Z,98360.41
2023-03-18T08:31:31.538Z,98351.72
2023-03-18T08:33:59.504Z,98349.56
2023-03-18T08:36:27.286Z,98350.56
2023-03-18T08:38:54.006Z,98347.50
2023-03-18T08:41:20.801Z,98353.19
2023-03-18T08:43:47.522Z,98349.97
2023-03-18T08:46:14.733Z,98349.13
2023-03-18T08:48:44.651Z,98343.03
2023-03-18T08:51:11.311Z,98339.78
2023-03-18T08:53:37.991Z,98347.44
2023-03-18T08:56:07.700Z,98344.59
2023-03-18T08:58:34.953Z,98347.41
2023-03-18T09:01:03.632Z,98341.28
2023-03-18T09:03:30.495Z,98346.31
2023-03-18T09:05:57.653Z,98354.22
2023-03-18T09:08:24.418Z,98346.84
2023-03-18T09:10:53.767Z,98345.94
2023-03-18T09:13:21.466Z,98340.97
2023-03-18T09:15:48.673Z,98341.75
2023-03-18T09:18:18.290Z,98337.84
2023-03-18T09:20:45.803Z,98338.44
2023-03-18T09:23:14.142Z,98336.38
2023-03-18T09:25:42.735Z,98346.03
2023-03-18T09:28:09.504Z,98338.06
2023-03-18T09:30:36.798Z,98338.78
2023-03-18T09:33:06.200Z,98331.16
2023-03-18T09:35:34.436Z,98334.97
2023-03-18T09:38:01.459Z,98327.63
2023-03-18T09:40:33.582Z,98334.41
2023-03-18T09:43:16.464Z,98333.53
2023-03-18T09:45:47.101Z,98335.50
2023-03-18T09:48:39.848Z,98330.03
2023-03-18T09:51:21.822Z,98329.84
2023-03-18T09:54:01.539Z,98320.91
2023-03-18T09:56:32.446Z,98315.69
2023-03-18T09:59:16.007Z,98314.94
2023-03-18T10:01:46.116Z,98310.53
2023-03-18T10:04:20.719Z,98316.84
2023-03-18T10:06:52.391Z,98315.38
2023-03-18T10:09:22.223Z,98314.41
2023-03-18T10:11:51.572Z,98312.31
2023-03-18T10:14:21.208Z,98312.25
2023-03-18T10:16:53.453Z,98304.63
2023-03-18T10:19:20.102Z,98316.44
2023-03-18T10:21:54.604Z,98318.03
2023-03-18T10:24:23.293Z,98309.97
2023-03-18T10:27:02.066Z,98306.63
2023-03-18T10:29:38.558Z,98300.75
2023-03-18T10:32:16.458Z,98305.03
2023-03-18T10:35:04.015Z,98301.75
2023-03-18T10:38:01.361Z,98295.84
2023-03-18T10:40:30.241Z,98291.44
2023-03-18T10:42:56.962Z,98289.22
2023-03-18T10:45:24.106Z,98287.19
2023-03-18T10:47:59.263Z,98292.03
2023-03-18T10:50:34.111Z,98294.22
2023-03-18T10:53:12.015Z,98291.88
2023-03-18T10:55:50.943Z,98290.88
2023-03-18T10:58:19.598Z,98288.31
2023-03-18T11:00:46.355Z,98296.28
2023-03-18T11:03:29.386Z,98283.06
2023-03-18T11:05:59.676Z,98285.59
2023-03-18T11:08:34.304Z,98281.16
2023-03-18T11:11:17.596Z,98267.53
2023-03-18T11:13:46.910Z,98262.06
2023-03-18T11:16:26.060Z,98269.53
2023-03-18T11:18:52.999Z,98265.22
2023-03-18T11:21:20.546Z,98268.03
2023-03-18T11:24:07.538Z,98259.44
2023-03-18T11:26:47.050Z,98254.25
2023-03-18T11:29:18.646Z,98255.94
2023-03-18T11:31:49.920Z,98253.72
2023-03-18T11:34:19.742Z,98243.94
2023-03-18T11:36:55.639Z,98247.44
2023-03-18T11:39:25.113Z,98239.91
2023-03-18T11:41:52.970Z,98235.75
2023-03-18T11:44:26.098Z,98236.72
2023-03-18T11:47:10.910Z,98228.59
2023-03-18T11:49:37.984Z,98226.31
2023-03-18T11:52:06.648Z,98217.28
2023-03-18T11:55:09.542Z,98218.34
2023-03-18T11:57:56.062Z,98207.03
2023-03-18T12:00:39.289Z,98205.72
2023-03-18T12:03:19.863Z,98205.41
2023-03-18T12:05:56.986Z,98203.69
2023-03-18T12:08:39.014Z,98208.00
2023-03-18T12:11:07.730Z,98198.38
2023-03-18T12:13:55.567Z,98199.44
2023-03-18T12:16:45.124Z,98197.44
2023-03-18T12:19:19.898Z,98188.47
2023-03-18T12:22:01.816Z,98186.59
2023-03-18T12:24:58.791Z,98187.69
2023-03-18T12:27:42.844Z,98188.53
2023-03-18T12:30:44.770Z,98184.81
2023-03-18T12:33:27.043Z,98181.16
2023-03-18T12:36:14.590Z,98180.66
2023-03-18T12:38:51.620Z,98174.81
2023-03-18T12:41:40.951Z,98178.03
2023-03-18T12:44:35.178Z,98168.94
2023-03-18T12:47:18.225Z,98173.28
2023-03-18T12:49:52.602Z,98168.78
2023-03-18T12:52:43.566Z,98168.31
2023-03-18T12:55:21.699Z,98163.81
2023-03-18T12:57:56.598Z,98158.25
2023-03-18T13:00:30.382Z,98154.22
2023-03-18T13:03:13.553Z,98155.28
2023-03-18T13:05:42.810Z,98148.34
2023-03-18T13:08:21.159Z,98150.50
2023-03-18T13:11:00.764Z,98158.53
2023-03-18T13:13:30.405Z,98153.47
2023-03-18T13:15:57.246Z,98145.19
2023-03-18T13:18:43.856Z,98147.31
2023-03-18T13:21:16.033Z,98152.94
2023-03-18T13:23:57.895Z,98150.53
2023-03-18T13:26:31.787Z,98150.28
2023-03-18T13:29:16.603Z,98153.75
2023-03-18T13:31:58.899Z,98146.28
2023-03-18T13:34:45.498Z,98137.47
2023-03-18T13:37:27.560Z,98139.63
2023-03-18T13:40:14.097Z,98135.59
2023-03-18T13:42:41.915Z,98141.47
2023-03-18T13:45:23.186Z,98133.72
2023-03-18T13:48:01.463Z,98138.56
2023-03-18T13:50:32.380Z,98130.53
2023-03-18T13:53:01.667Z,98136.69
2023-03-18T13:55:48.022Z,98131.84
2023-03-18T13:58:26.016Z,98121.72
2023-03-18T14:01:15.476Z,98112.59
2023-03-18T14:03:42.380Z,98111.53
2023-03-18T14:06:22.574Z,98099.22
2023-03-18T14:08:51.775Z,98096.28
2023-03-18T14:11:23.090Z,98095.47
2023-03-18T14:13:51.796Z,98095.75
2023-03-18T14:16:23.392Z,98094.41
2023-03-18T14:19:13.351Z,98094.66
2023-03-18T14:21:53.498Z,98083.94
2023-03-18T14:24:21.692Z,98082.38
2023-03-18T14:27:04.419Z,98076.22
2023-03-18T14:29:47.456Z,98072.47
2023-03-18T14:32:36.433Z,98078.63
2023-03-18T14:35:18.528Z,98078.88
2023-03-18T14:38:16.056Z,98071.38
2023-03-18T14:40:46.488Z,98067.66
2023-03-18T14:43:24.169Z,98067.34
2023-03-18T14:45:53.523Z,98062.28
2023-03-18T14:48:21.610Z,98068.19
2023-03-18T14:50:52.002Z,98060.94
2023-03-18T14:53:22.849Z,98057.78
2023-03-18T14:55:51.509Z,98054.03
2023-03-18T14:58:20.619Z,98057.22
2023-03-18T15:00:51.656Z,98055.88
2023-03-18T15:03:24.958Z,98052.13
2023-03-18T15:05:58.045Z,98050.25
2023-03-18T15:08:37.505Z,98049.72
2023-03-18T15:11:11.581Z,98041.38
2023-03-18T15:13:42.007Z,98042.44
2023-03-18T15:16:13.616Z,98048.09
2023-03-18T15:18:40.627Z,98047.59
2023-03-18T15:21:17.860Z,98051.59
2023-03-18T15:23:51.169Z,98044.41
2023-03-18T15:26:23.583Z,98047.34
2023-03-18T15:28:56.492Z,98049.75
2023-03-18T15:31:29.896Z,98050.81
2023-03-18T15:34:06.145Z,98050.81
2023-03-18T15:36:40.198Z,98046.50
2023-03-18T15:39:33.464Z,98047.09
2023-03-18T15:42:01.870Z,98040.13
2023-03-18T15:44:32.399Z,98039.88
2023-03-18T15:47:13.815Z,98045.53
2023-03-18T15:49:51.617Z,98045.78
2023-03-18T15:52:21.026Z,98044.72
2023-03-18T15:54:48.194Z,98040.47
2023-03-18T15:57:28.123Z,98039.13
2023-03-18T15:59:54.818Z,98047.44
2023-03-18T16:02:22.640Z,98056.53
2023-03-18T16:04:49.362Z,98056.28
2023-03-18T16:07:19.161Z,98061.84
2023-03-18T16:09:45.864Z,98053.31
2023-03-18T16:12:19.347Z,98057.06
2023-03-18T16:14:48.327Z,98053.59
2023-03-18T16:17:19.652Z,98062.94
2023-03-18T16:19:48.696Z,98056.25
2023-03-18T16:22:15.508Z,98065.59
2023-03-18T16:24:45.777Z,98060.50
2023-03-18T16:27:30.698Z,98067.16
2023-03-18T16:29:57.408Z,98070.59
2023-03-18T16:32:24.315Z,98076.72
2023-03-18T16:34:51.132Z,98072.47
2023-03-18T16:37:25.040Z,98071.91
2023-03-18T16:39:54.543Z,98070.28
2023-03-18T16:42:24.048Z,98075.84
2023-03-18T16:44:51.924Z,98077.69
2023-03-18T16:47:22.669Z,98081.94
2023-03-18T16:49:49.761Z,98089.34
2023-03-18T16:52:19.724Z,98083.97
2023-03-18T16:54:46.323Z,98085.81
2023-03-18T16:57:18.863Z,98089.25
2023-03-18T16:59:51.098Z,98096.03
2023-03-18T17:02:34.303Z,98090.69
2023-03-18T17:05:01.828Z,98097.81
2023-03-18T17:07:29.596Z,98094.03
2023-03-18T17:09:56.711Z,98102.22
2023-03-18T17:12:24.728Z,98104.28
2023-03-18T17:14:55.368Z,98101.25
2023-03-18T17:17:22.997Z,98105.19
2023-03-18T17:19:49.593Z,98100.59
2023-03-18T17:22:25.909Z,98107.69
2023-03-18T17:24:52.621Z,98108.19
2023-03-18T17:27:23.760Z,98117.16
2023-03-18T17:29:50.485Z,98122.38
2023-03-18T17:32:19.410Z,98118.94
2023-03-18T17:34:48.320Z,98117.59
2023-03-18T17:37:15.093Z,98121.72
2023-03-18T17:39:42.059Z,98127.50
2023-03-18T17:42:26.630Z,98130.34
2023-03-18T17:44:53.291Z,98132.91
2023-03-18T17:47:19.949Z,98136.81
2023-03-18T17:49:46.638Z,98131.66
2023-03-18T17:52:20.870Z,98134.72
2023-03-18T17:54:48.088Z,98134.09
2023-03-18T17:57:16.346Z,98130.25
2023-03-18T17:59:43.311Z,98118.44
2023-03-18T18:02:17.757Z,98120.19
2023-03-18T18:04:45.060Z,98117.41
2023-03-18T18:07:21.644Z,98121.59
2023-03-18T18:09:49.745Z,98108.38
2023-03-18T18:12:23.299Z,98111.41
2023-03-18T18:14:50.081Z,98115.94
2023-03-18T18:17:17.563Z,98120.91
2023-03-18T18:19:44.610Z,98121.50
2023-03-18T18:22:19.176Z,98125.91
2023-03-18T18:24:47.102Z,98129.53
2023-03-18T18:27:15.072Z,98132.56
2023-03-18T18:29:49.401Z,98136.97
2023-03-18T18:32:16.372Z,98131.09
2023-03-18T18:34:43.059Z,98137.94
2023-03-18T18:37:09.821Z,98124.56
2023-03-18T18:39:36.483Z,98131.66
2023-03-18T18:42:04.272Z,98133.06
2023-03-18T18:44:31.782Z,98131.72
2023-03-18T18:46:58.884Z,98125.88
2023-03-18T18:49:25.959Z,98126.72
2023-03-18T18:51:54.824Z,98124.88
2023-03-18T18:54:23.011Z,98132.19
2023-03-18T18:56:50.383Z,98119.97
2023-03-18T18:59:28.755Z,98130.00
2023-03-18T19:01:56.157Z,98123.22
2023-03-18T19:04:23.901Z,98126.78
2023-03-18T19:06:52.574Z,98119.63
2023-03-18T19:09:23.900Z,98124.81
2023-03-18T19:11:51.735Z,98131.25
2023-03-18T19:14:27.391Z,98125.72
2023-03-18T19:16:57.448Z,98135.84
2023-03-18T19:19:27.334Z,98138.22
2023-03-18T19:21:54.128Z,98141.44
2023-03-18T19:24:26.784Z,98140.22
2023-03-18T19:26:55.451Z,98128.47
2023-03-18T19:29:22.535Z,98123.94
2023-03-18T19:31:49.737Z,98127.69
2023-03-18T19:34:18.238Z,98122.97
2023-03-18T19:36:48.772Z,98115.63
2023-03-18T19:39:17.672Z,98117.53
2023-03-18T19:41:47.054Z,98113.16
2023-03-18T19:44:18.330Z,98112.78
2023-03-18T19:46:47.421Z,98111.09
2023-03-18T19:49:37.055Z,98115.59
2023-03-18T19:52:22.007Z,98115.72
2023-03-18T19:54:49.843Z,98116.28
2023-03-18T19:57:20.836Z,98117.47
2023-03-18T19:59:49.179Z,98121.50
2023-03-18T20:02:19.933Z,98123.56
2023-03-18T20:04:47.880Z,98132.19
2023-03-18T20:07:14.734Z,98126.56
2023-03-18T20:09:42.607Z,98122.78
2023-03-18T20:12:21.680Z,98124.00
2023-03-18T20:14:49.132Z,98128.81
2023-03-18T20:17:31.060Z,98133.56
2023-03-18T20:19:57.906Z,98134.44
2023-03-18T20:22:29.015Z,98136.91
2023-03-18T20:24:56.137Z,98144.38
2023-03-18T20:27:23.171Z,98148.53
2023-03-18T20:29:49.940Z,98160.06
2023-03-18T20:32:16.790Z,98162.28
2023-03-18T20:34:44.000Z,98164.94
2023-03-18T20:37:32.048Z,98165.94
2023-03-18T20:39:58.843Z,98156.34
2023-03-18T20:42:25.995Z,98146.50
2023-03-18T20:44:52.722Z,98146.19
2023-03-18T20:47:19.352Z,98148.59
2023-03-18T20:49:46.474Z,98150.00
2023-03-18T20:52:32.708Z,98149.66
2023-03-18T20:54:59.354Z,98150.00
2023-03-18T20:57:34.406Z,98143.19
2023-03-18T21:00:01.062Z,98141.56
2023-03-18T21:02:31.055Z,98152.72
2023-03-18T21:04:58.931Z,98152.16
2023-03-18T21:07:26.700Z,98159.06
2023-03-18T21:09:53.713Z,98163.13
2023-03-18T21:12:22.013Z,98166.63
2023-03-18T21:14:49.733Z,98166.59
2023-03-18T21:17:22.596Z,98171.88
2023-03-18T21:19:50.738Z,98164.78
2023-03-18T21:22:21.701Z,98163.19
2023-03-18T21:24:48.964Z,98164.03
2023-03-18T21:27:22.365Z,98165.63
2023-03-18T21:29:51.189Z,98159.97
2023-03-18T21:32:29.791Z,98163.63
2023-03-18T21:34:56.834Z,98163.84
2023-03-18T21:37:25.565Z,98158.75
2023-03-18T21:39:53.165Z,98156.75
2023-03-18T21:42:24.253Z,98156.75
2023-03-18T21:44:51.750Z,98147.25
2023-03-18T21:47:20.927Z,98140.97
2023-03-18T21:49:48.972Z,98140.16
2023-03-18T21:52:26.389Z,98130.06
2023-03-18T21:54:53.287Z,98133.69
2023-03-18T21:57:22.090Z,98132.06
2023-03-18T21:59:50.075Z,98128.03
2023-03-18T22:02:32.486Z,98128.44
2023-03-18T22:05:01.593Z,98126.44
2023-03-18T22:07:31.770Z,98126.00
2023-03-18T22:10:00.643Z,98122.16
2023-03-18T22:12:30.340Z,98120.75
2023-03-18T22:14:58.119Z,98122.16
2023-03-18T22:17:30.807Z,98125.34
2023-03-18T22:19:59.090Z,98125.16
2023-03-18T22:22:33.448Z,98133.06
2023-03-18T22:25:00.650Z,98133.47
2023-03-18T22:27:29.262Z,98139.31
2023-03-18T22:29:58.419Z,98147.38
2023-03-18T22:32:40.832Z,98145.97
2023-03-18T22:35:17.646Z,98140.91
2023-03-18T22:37:45.399Z,98143.31
2023-03-18T22:40:19.170Z,98139.84
2023-03-18T22:42:48.188Z,98151.16
2023-03-18T22:45:32.336Z,98147.94
2023-03-18T22:48:01.925Z,98141.84
2023-03-18T22:50:31.738Z,98145.88
2023-03-18T22:53:02.493Z,98148.72
2023-03-18T22:55:34.930Z,98151.94
2023-03-18T22:58:02.000Z,98158.03
2023-03-18T23:00:44.855Z,98157.59
2023-03-18T23:03:19.173Z,98158.56
2023-03-18T23:05:47.153Z,98163.22
2023-03-18T23:08:14.755Z,98158.56
2023-03-18T23:10:42.772Z,98173.06
2023-03-18T23:13:23.600Z,98173.47
2023-03-18T23:15:50.274Z,98170.66
2023-03-18T23:18:18.597Z,98168.44
2023-03-18T23:20:48.287Z,98168.97
2023-03-18T23:23:16.733Z,98163.13
2023-03-18T23:25:45.399Z,98162.06
2023-03-18T23:28:12.714Z,98163.22
2023-03-18T23:30:42.024Z,98167.81
2023-03-18T23:33:09.968Z,98162.56
2023-03-18T23:35:38.149Z,98160.34
2023-03-18T23:38:06.574Z,98161.75
2023-03-18T23:40:34.005Z,98154.69
2023-03-18T23:43:00.776Z,98159.16
2023-03-18T23:45:28.104Z,98151.47
2023-03-18T23:47:56.610Z,98150.84
2023-03-18T23:50:24.000Z,98155.50
2023-03-18T23:52:50.901Z,98143.81
2023-03-18T23:55:33.643Z,98159.13
2023-03-18T23:58:01.355Z,98159.50
